createdAt,value
2023-03-26T00:00:54.404Z,0.70
2023-03-26T00:03:22.546Z,0.50
2023-03-26T00:05:50.037Z,0.80
2023-03-26T00:08:17.818Z,0.50
2023-03-26T00:10:45.154Z,0.67
2023-03-26T00:13:12.186Z,1.10
2023-03-26T00:15:41.131Z,0.80
2023-03-26T00:18:09.492Z,1.03
2023-03-26T00:20:38.771Z,0.77
2023-03-26T00:23:05.684Z,0.70
2023-03-26T00:25:34.449Z,0.70
2023-03-26T00:28:01.593Z,0.50
2023-03-26T00:30:28.888Z,0.60
2023-03-26T00:32:55.802Z,0.40
2023-03-26T00:35:24.276Z,0.60
2023-03-26T00:37:51.526Z,0.60
2023-03-26T00:40:18.810Z,0.70
2023-03-26T00:42:45.759Z,0.40
2023-03-26T00:45:12.863Z,0.70
2023-03-26T00:47:40.810Z,0.80
2023-03-26T00:50:15.438Z,0.57
2023-03-26T00:52:44.125Z,0.73
2023-03-26T00:55:11.121Z,0.80
2023-03-26T00:57:38.610Z,0.70
2023-03-26T01:00:10.099Z,0.87
2023-03-26T01:02:37.392Z,0.60
2023-03-26T01:05:42.758Z,0.67
2023-03-26T01:08:16.592Z,0.60
2023-03-26T01:10:50.963Z,0.70
2023-03-26T01:13:24.121Z,0.73
2023-03-26T01:15:53.038Z,0.50
2023-03-26T01:18:26.456Z,0.87
2023-03-26T01:20:58.585Z,0.50
2023-03-26T01:23:36.260Z,0.63
2023-03-26T01:26:12.611Z,0.60
2023-03-26T01:28:41.402Z,1.00
2023-03-26T01:31:29.600Z,0.67
2023-03-26T01:34:12.395Z,0.80
2023-03-26T01:36:48.106Z,0.80
2023-03-26T01:39:25.372Z,0.80
2023-03-26T01:41:57.778Z,0.90
2023-03-26T01:44:31.881Z,0.60
2023-03-26T01:47:01.240Z,0.80
2023-03-26T01:49:29.946Z,1.07
2023-03-26T01:51:58.408Z,0.60
2023-03-26T01:54:28.391Z,0.80
2023-03-26T01:57:14.096Z,0.90
2023-03-26T01:59:56.203Z,1.10
2023-03-26T02:02:38.672Z,0.97
2023-03-26T02:05:26.628Z,0.90
2023-03-26T02:08:05.414Z,0.70
2023-03-26T02:10:38.359Z,0.63
2023-03-26T02:13:06.186Z,1.17
2023-03-26T02:15:33.303Z,1.07
2023-03-26T02:18:02.005Z,0.80
2023-03-26T02:20:30.231Z,1.00
2023-03-26T02:22:58.106Z,1.10
2023-03-26T02:25:25.032Z,0.80
2023-03-26T02:27:53.393Z,1.00
2023-03-26T02:30:29.771Z,0.83
2023-03-26T02:32:59.376Z,0.90
2023-03-26T02:35:26.816Z,0.77
2023-03-26T02:37:53.660Z,1.50
2023-03-26T02:40:22.439Z,1.00
2023-03-26T02:42:49.476Z,1.00
2023-03-26T02:45:16.510Z,1.00
2023-03-26T02:47:43.565Z,0.90
2023-03-26T02:50:12.206Z,0.90
2023-03-26T02:52:39.147Z,1.00
2023-03-26T02:55:07.410Z,1.13
2023-03-26T02:57:34.670Z,0.90
2023-03-26T04:00:41.614Z,1.33
2023-03-26T04:03:08.644Z,1.07
2023-03-26T04:05:36.494Z,1.27
2023-03-26T04:08:03.362Z,0.90
2023-03-26T04:10:30.243Z,0.80
2023-03-26T04:12:57.161Z,1.00
2023-03-26T04:15:23.957Z,0.97
2023-03-26T04:17:52.084Z,1.17
2023-03-26T04:20:19.471Z,1.10
2023-03-26T04:22:46.661Z,1.40
2023-03-26T04:25:13.598Z,1.03
2023-03-26T04:27:43.284Z,1.37
2023-03-26T04:30:16.680Z,0.80
2023-03-26T04:32:44.688Z,1.47
2023-03-26T04:35:14.463Z,1.37
2023-03-26T04:37:44.330Z,1.57
2023-03-26T04:40:16.840Z,1.17
2023-03-26T04:42:46.104Z,1.30
2023-03-26T04:45:15.498Z,1.20
2023-03-26T04:47:42.319Z,1.20
2023-03-26T04:50:11.174Z,1.20
2023-03-26T04:52:38.637Z,1.23
2023-03-26T04:55:16.892Z,2.43
2023-03-26T04:57:46.790Z,1.10
2023-03-26T05:00:16.478Z,1.33
2023-03-26T05:02:43.847Z,1.03
2023-03-26T05:05:11.388Z,1.00
2023-03-26T05:07:38.286Z,1.70
2023-03-26T05:10:05.777Z,1.30
2023-03-26T05:12:32.608Z,1.20
2023-03-26T05:14:59.417Z,1.10
2023-03-26T05:17:26.711Z,1.07
2023-03-26T05:19:53.573Z,1.80
2023-03-26T05:22:20.347Z,1.37
2023-03-26T05:24:47.108Z,1.20
2023-03-26T05:27:16.986Z,1.27
2023-03-26T05:29:44.030Z,1.10
2023-03-26T05:32:11.352Z,1.37
2023-03-26T05:34:40.134Z,1.57
2023-03-26T05:37:07.485Z,1.37
2023-03-26T05:39:35.560Z,1.63
2023-03-26T05:42:02.749Z,1.30
2023-03-26T05:44:29.905Z,1.50
2023-03-26T05:46:56.675Z,1.80
2023-03-26T05:49:23.537Z,1.40
2023-03-26T05:51:50.544Z,1.53
2023-03-26T05:54:17.323Z,1.80
2023-03-26T05:56:44.106Z,1.80
2023-03-26T05:59:10.881Z,2.30
2023-03-26T06:01:38.591Z,1.00
2023-03-26T06:04:05.756Z,0.80
2023-03-26T06:06:33.286Z,0.80
2023-03-26T06:09:00.936Z,0.73
2023-03-26T06:11:29.958Z,0.73
2023-03-26T06:13:56.861Z,0.87
2023-03-26T06:16:27.252Z,0.70
2023-03-26T06:18:56.713Z,0.73
2023-03-26T06:21:25.655Z,0.83
2023-03-26T06:23:52.995Z,0.80
2023-03-26T06:26:19.925Z,0.60
2023-03-26T06:28:46.762Z,0.70
2023-03-26T06:31:13.828Z,0.63
2023-03-26T06:33:40.714Z,0.73
2023-03-26T06:36:07.855Z,1.50
2023-03-26T06:38:34.719Z,1.10
2023-03-26T06:41:04.179Z,0.83
2023-03-26T06:43:33.745Z,1.30
2023-03-26T06:46:01.963Z,1.17
2023-03-26T06:48:28.820Z,1.03
2023-03-26T06:50:55.818Z,0.90
2023-03-26T06:53:22.809Z,0.97
2023-03-26T06:55:49.731Z,1.07
2023-03-26T06:58:16.771Z,1.13
2023-03-26T07:00:43.855Z,1.10
2023-03-26T07:03:11.586Z,1.10
2023-03-26T07:05:41.182Z,0.87
2023-03-26T07:08:07.900Z,0.90
2023-03-26T07:10:34.678Z,1.10
2023-03-26T07:13:01.393Z,1.10
2023-03-26T07:15:29.370Z,1.03
2023-03-26T07:17:56.597Z,1.10
2023-03-26T07:20:23.939Z,0.97
2023-03-26T07:22:51.955Z,1.27
2023-03-26T07:25:19.855Z,1.00
2023-03-26T07:27:55.226Z,1.10
2023-03-26T07:30:32.919Z,1.07
2023-03-26T07:33:04.303Z,0.90
2023-03-26T07:35:35.240Z,1.10
2023-03-26T07:38:06.697Z,1.10
2023-03-26T07:40:43.598Z,1.10
2023-03-26T07:43:33.437Z,1.47
2023-03-26T07:46:01.067Z,1.37
2023-03-26T07:48:40.706Z,1.10
2023-03-26T07:51:08.553Z,1.47
2023-03-26T07:53:35.551Z,1.10
2023-03-26T07:56:16.870Z,0.90
2023-03-26T07:59:02.356Z,1.83
2023-03-26T08:01:42.176Z,1.60
2023-03-26T08:04:25.787Z,1.77
2023-03-26T08:06:59.855Z,1.20
2023-03-26T08:09:26.582Z,1.20
2023-03-26T08:12:16.428Z,1.30
2023-03-26T08:14:58.325Z,1.43
2023-03-26T08:17:39.547Z,1.33
2023-03-26T08:20:26.130Z,1.67
2023-03-26T08:23:02.276Z,1.40
2023-03-26T08:25:43.463Z,1.90
2023-03-26T08:28:38.027Z,0.87
2023-03-26T08:31:05.429Z,4.00
2023-03-26T08:33:35.037Z,1.50
2023-03-26T08:36:04.585Z,1.50
2023-03-26T08:38:31.490Z,1.43
2023-03-26T08:41:18.864Z,1.10
2023-03-26T08:44:20.844Z,1.13
2023-03-26T08:47:03.328Z,1.20
2023-03-26T08:49:37.437Z,1.77
2023-03-26T08:52:13.311Z,1.17
2023-03-26T08:54:44.456Z,1.10
2023-03-26T08:57:42.257Z,1.63
2023-03-26T09:00:32.256Z,1.47
2023-03-26T09:03:14.519Z,0.90
2023-03-26T09:05:44.638Z,0.90
2023-03-26T09:08:33.385Z,0.93
2023-03-26T09:11:10.954Z,0.90
2023-03-26T09:13:56.638Z,1.00
2023-03-26T09:16:39.917Z,0.90
2023-03-26T09:19:21.982Z,1.80
2023-03-26T09:22:07.337Z,1.83
2023-03-26T09:25:05.460Z,1.03
2023-03-26T09:27:37.757Z,1.60
2023-03-26T09:30:18.017Z,1.90
2023-03-26T09:33:00.353Z,1.97
2023-03-26T09:35:58.122Z,1.60
2023-03-26T09:38:43.865Z,1.27
2023-03-26T09:41:37.575Z,1.40
2023-03-26T09:44:35.350Z,1.70
2023-03-26T09:47:34.902Z,1.53
2023-03-26T09:50:34.799Z,1.03
2023-03-26T09:53:33.880Z,2.30
2023-03-26T09:56:06.543Z,1.67
2023-03-26T09:59:00.102Z,1.13
2023-03-26T10:01:42.830Z,1.50
2023-03-26T10:04:29.953Z,1.73
2023-03-26T10:07:04.536Z,1.30
2023-03-26T10:09:37.619Z,1.70
2023-03-26T10:12:19.019Z,1.93
2023-03-26T10:15:00.209Z,1.50
2023-03-26T10:17:42.417Z,2.00
2023-03-26T10:20:28.798Z,1.90
2023-03-26T10:23:19.080Z,1.40
2023-03-26T10:25:54.445Z,1.90
2023-03-26T10:28:33.799Z,1.00
2023-03-26T10:31:01.734Z,0.80
2023-03-26T10:33:40.188Z,1.00
2023-03-26T10:36:36.816Z,1.10
2023-03-26T10:39:37.253Z,1.03
2023-03-26T10:42:16.791Z,1.00
2023-03-26T10:45:01.376Z,0.60
2023-03-26T10:47:43.416Z,0.80
2023-03-26T10:50:26.407Z,0.70
2023-03-26T10:52:54.237Z,0.50
2023-03-26T10:55:34.722Z,0.60
2023-03-26T10:58:18.892Z,0.70
2023-03-26T11:00:59.016Z,0.67
2023-03-26T11:03:44.849Z,0.60
2023-03-26T11:06:19.101Z,0.60
2023-03-26T11:09:02.402Z,0.60
2023-03-26T11:11:36.149Z,0.80
2023-03-26T11:14:34.445Z,0.50
2023-03-26T11:17:40.825Z,0.70
2023-03-26T11:20:10.581Z,0.37
2023-03-26T11:22:50.766Z,0.40
2023-03-26T11:25:18.669Z,0.60
2023-03-26T11:28:09.622Z,0.60
2023-03-26T11:30:45.359Z,0.30
2023-03-26T11:33:18.980Z,0.60
2023-03-26T11:35:49.363Z,0.60
2023-03-26T11:38:23.120Z,0.50
2023-03-26T11:40:55.383Z,0.50
2023-03-26T11:43:28.081Z,0.80
2023-03-26T11:45:55.542Z,0.60
2023-03-26T11:48:37.914Z,0.50
2023-03-26T11:51:10.330Z,0.40
2023-03-26T11:53:39.580Z,0.37
2023-03-26T11:56:29.826Z,0.40
2023-03-26T11:59:11.746Z,0.40
2023-03-26T12:02:04.838Z,0.60
2023-03-26T12:04:38.061Z,0.40
2023-03-26T12:07:16.960Z,0.37
2023-03-26T12:09:53.654Z,0.30
2023-03-26T12:12:22.213Z,0.40
2023-03-26T12:14:49.063Z,0.30
2023-03-26T12:17:32.399Z,0.60
2023-03-26T12:19:59.449Z,0.93
2023-03-26T12:22:43.625Z,0.50
2023-03-26T12:25:17.869Z,0.67
2023-03-26T12:27:49.599Z,0.80
2023-03-26T12:30:26.868Z,0.63
2023-03-26T12:33:00.990Z,0.47
2023-03-26T12:35:30.329Z,0.53
2023-03-26T12:38:15.444Z,0.20
2023-03-26T12:40:43.286Z,0.53
2023-03-26T12:44:54.028Z,0.40
2023-03-26T12:47:56.456Z,0.50
2023-03-26T12:49:12.304Z,0.50
2023-03-26T12:51:40.260Z,0.90
2023-03-26T12:54:16.216Z,0.50
2023-03-26T12:57:11.427Z,0.73
2023-03-26T12:59:53.191Z,0.70
2023-03-26T13:02:43.963Z,0.60
2023-03-26T13:05:34.228Z,0.80
2023-03-26T13:08:23.292Z,0.60
2023-03-26T13:11:10.160Z,0.40
2023-03-26T13:13:53.462Z,0.40
2023-03-26T13:16:42.005Z,0.50
2023-03-26T13:19:14.761Z,0.70
2023-03-26T13:21:57.768Z,1.50
2023-03-26T13:24:38.340Z,7.53
2023-03-26T13:27:17.076Z,6.40
2023-03-26T13:29:59.321Z,1.40
2023-03-26T13:32:44.611Z,0.70
2023-03-26T13:35:31.153Z,0.80
2023-03-26T13:38:11.176Z,0.70
2023-03-26T13:40:51.233Z,0.60
2023-03-26T13:43:41.364Z,0.50
2023-03-26T13:46:12.444Z,0.40
2023-03-26T13:48:57.920Z,0.73
2023-03-26T13:51:35.191Z,0.40
2023-03-26T13:54:15.707Z,0.47
2023-03-26T13:56:52.321Z,0.57
2023-03-26T13:59:39.847Z,0.73
2023-03-26T14:02:26.306Z,0.70
2023-03-26T14:05:02.136Z,0.53
2023-03-26T14:07:33.637Z,0.50
2023-03-26T14:10:06.158Z,0.50
2023-03-26T14:12:49.072Z,0.40
2023-03-26T14:15:42.801Z,0.73
2023-03-26T14:18:40.769Z,0.73
2023-03-26T14:21:38.358Z,0.40
2023-03-26T14:24:27.168Z,0.40
2023-03-26T14:27:09.570Z,0.53
2023-03-26T14:30:02.538Z,0.57
2023-03-26T14:32:30.441Z,0.60
2023-03-26T14:35:18.550Z,0.53
2023-03-26T14:38:07.204Z,1.60
2023-03-26T14:40:49.266Z,1.07
2023-03-26T14:43:34.092Z,0.80
2023-03-26T14:46:08.186Z,0.60
2023-03-26T14:48:50.420Z,0.60
2023-03-26T14:51:41.463Z,0.63
2023-03-26T14:54:13.353Z,0.70
2023-03-26T14:56:58.777Z,0.50
2023-03-26T14:59:49.180Z,0.40
2023-03-26T15:02:39.101Z,0.70
2023-03-26T15:05:28.463Z,0.63
2023-03-26T15:08:33.696Z,0.70
2023-03-26T15:11:24.235Z,0.70
2023-03-26T15:14:13.762Z,1.17
2023-03-26T15:16:41.629Z,1.07
2023-03-26T15:19:43.547Z,0.70
2023-03-26T15:22:18.959Z,0.50
2023-03-26T15:25:21.262Z,1.00
2023-03-26T15:28:10.872Z,1.03
2023-03-26T15:31:10.207Z,0.70
2023-03-26T15:33:52.373Z,0.83
2023-03-26T15:36:47.497Z,0.40
2023-03-26T15:39:33.656Z,0.67
2023-03-26T15:42:17.143Z,0.60
2023-03-26T15:44:55.001Z,0.67
2023-03-26T15:47:34.026Z,0.50
2023-03-26T15:50:24.810Z,1.60
2023-03-26T15:52:57.400Z,0.50
2023-03-26T15:55:36.232Z,0.53
2023-03-26T15:58:12.257Z,0.60
2023-03-26T16:00:55.140Z,0.40
2023-03-26T16:03:31.099Z,0.40
2023-03-26T16:06:02.315Z,0.40
2023-03-26T16:08:47.204Z,0.50
2023-03-26T16:11:15.687Z,0.60
2023-03-26T16:14:04.184Z,0.90
2023-03-26T16:16:48.959Z,0.43
2023-03-26T16:19:31.728Z,1.07
2023-03-26T16:22:06.039Z,0.63
2023-03-26T16:24:36.655Z,0.47
2023-03-26T16:27:08.337Z,0.50
2023-03-26T16:30:02.660Z,0.90
2023-03-26T16:32:38.389Z,0.73
2023-03-26T16:35:35.964Z,0.57
2023-03-26T16:38:16.333Z,0.50
2023-03-26T16:41:01.290Z,0.70
2023-03-26T16:43:43.786Z,1.00
2023-03-26T16:46:25.474Z,0.97
2023-03-26T16:49:03.281Z,0.70
2023-03-26T16:51:58.175Z,1.23
2023-03-26T16:54:39.768Z,0.40
2023-03-26T16:57:39.824Z,0.77
2023-03-26T17:00:29.227Z,0.53
2023-03-26T17:03:13.063Z,0.70
2023-03-26T17:05:58.357Z,0.50
2023-03-26T17:08:44.958Z,0.50
2023-03-26T17:11:28.181Z,0.33
2023-03-26T17:14:25.739Z,0.60
2023-03-26T17:17:08.606Z,0.40
2023-03-26T17:20:09.313Z,0.63
2023-03-26T17:22:47.142Z,0.50
2023-03-26T17:25:36.622Z,0.60
2023-03-26T17:28:27.431Z,0.30
2023-03-26T17:31:10.894Z,0.30
2023-03-26T17:33:39.477Z,0.50
2023-03-26T17:36:21.727Z,0.33
2023-03-26T17:38:52.458Z,0.47
2023-03-26T17:41:51.891Z,0.40
2023-03-26T17:44:40.456Z,0.50
2023-03-26T17:47:17.971Z,0.20
2023-03-26T17:49:47.368Z,0.33
2023-03-26T17:52:25.356Z,0.53
2023-03-26T17:54:56.317Z,0.43
2023-03-26T17:57:28.598Z,0.30
2023-03-26T17:59:59.651Z,0.30
2023-03-26T18:02:45.102Z,0.50
2023-03-26T18:05:15.288Z,0.80
2023-03-26T18:08:02.043Z,0.40
2023-03-26T18:10:52.132Z,0.30
2023-03-26T18:13:37.801Z,0.30
2023-03-26T18:16:24.520Z,0.40
2023-03-26T18:18:54.033Z,0.30
2023-03-26T18:21:30.454Z,0.50
2023-03-26T18:23:59.510Z,0.70
2023-03-26T18:26:33.953Z,0.30
2023-03-26T18:29:17.401Z,0.37
2023-03-26T18:31:45.950Z,0.30
2023-03-26T18:34:19.010Z,0.30
2023-03-26T18:37:01.191Z,0.30
2023-03-26T18:39:28.442Z,0.30
2023-03-26T18:41:55.461Z,0.20
2023-03-26T18:44:22.395Z,0.30
2023-03-26T18:46:52.066Z,0.30
2023-03-26T18:49:19.108Z,0.30
2023-03-26T18:51:56.134Z,0.47
2023-03-26T18:54:24.857Z,0.50
2023-03-26T18:56:53.069Z,0.30
2023-03-26T18:59:28.233Z,1.60
2023-03-26T19:01:57.725Z,1.20
2023-03-26T19:04:29.517Z,2.30
2023-03-26T19:06:56.914Z,1.10
2023-03-26T19:09:32.034Z,0.93
2023-03-26T19:12:06.911Z,0.70
2023-03-26T19:14:37.069Z,0.57
2023-03-26T19:17:07.359Z,1.27
2023-03-26T19:19:37.327Z,0.63
2023-03-26T19:22:07.651Z,0.73
2023-03-26T19:24:36.660Z,2.00
2023-03-26T19:27:04.553Z,1.80
2023-03-26T19:29:33.932Z,1.33
2023-03-26T19:32:19.097Z,0.47
2023-03-26T19:34:48.218Z,0.40
2023-03-26T19:37:25.187Z,0.40
2023-03-26T19:39:56.583Z,0.40
2023-03-26T19:42:44.069Z,0.47
2023-03-26T19:45:18.346Z,0.40
2023-03-26T19:47:50.082Z,0.30
2023-03-26T19:50:25.349Z,0.30
2023-03-26T19:53:17.899Z,0.50
2023-03-26T19:56:11.839Z,0.50
2023-03-26T19:58:39.634Z,0.50
2023-03-26T20:01:10.259Z,0.40
2023-03-26T20:03:40.603Z,0.30
2023-03-26T20:06:12.022Z,0.60
2023-03-26T20:08:40.577Z,0.30
2023-03-26T20:11:17.983Z,0.30
2023-03-26T20:13:44.853Z,0.30
2023-03-26T20:16:28.428Z,0.40
2023-03-26T20:18:57.590Z,0.20
2023-03-26T20:21:25.850Z,0.20
2023-03-26T20:23:53.943Z,0.30
2023-03-26T20:26:22.547Z,0.47
2023-03-26T20:31:25.295Z,0.40
2023-03-26T20:33:54.030Z,0.70
2023-03-26T20:36:33.762Z,0.40
2023-03-26T20:39:05.872Z,0.50
2023-03-26T20:41:34.185Z,0.40
2023-03-26T20:44:03.744Z,0.30
2023-03-26T20:46:31.864Z,0.30
2023-03-26T20:48:59.992Z,0.30
2023-03-26T20:51:28.522Z,0.30
2023-03-26T20:53:56.439Z,0.50
2023-03-26T20:56:23.860Z,0.30
2023-03-26T20:59:03.460Z,0.43
2023-03-26T21:01:38.330Z,0.30
2023-03-26T21:04:06.205Z,0.20
2023-03-26T21:06:33.249Z,0.37
2023-03-26T21:09:00.801Z,0.40
2023-03-26T21:11:43.962Z,0.30
2023-03-26T21:14:29.534Z,0.40
2023-03-26T21:16:56.743Z,0.33
2023-03-26T21:19:24.244Z,0.40
2023-03-26T21:22:07.295Z,0.30
2023-03-26T21:24:44.321Z,0.30
2023-03-26T21:27:26.762Z,0.20
2023-03-26T21:29:55.744Z,0.33
2023-03-26T21:32:22.989Z,0.30
2023-03-26T21:34:58.733Z,0.20
2023-03-26T21:37:27.520Z,0.30
2023-03-26T21:39:54.746Z,0.40
2023-03-26T21:42:22.822Z,1.00
2023-03-26T21:44:49.758Z,1.93
2023-03-26T21:47:16.836Z,2.57
2023-03-26T21:49:43.879Z,1.20
2023-03-26T21:52:15.129Z,0.50
2023-03-26T21:54:43.358Z,0.60
2023-03-26T21:57:39.405Z,0.30
2023-03-26T22:00:11.793Z,0.20
2023-03-26T22:02:43.197Z,0.20
2023-03-26T22:05:38.294Z,1.50
2023-03-26T22:08:07.158Z,0.70
2023-03-26T22:10:34.197Z,0.83
2023-03-26T22:13:01.648Z,0.60
2023-03-26T22:15:31.532Z,1.37
2023-03-26T22:18:03.614Z,0.30
2023-03-26T22:20:30.905Z,0.57
2023-03-26T22:22:58.970Z,0.30
2023-03-26T22:25:25.863Z,0.53
2023-03-26T22:27:52.754Z,0.30
2023-03-26T22:30:20.805Z,0.30
2023-03-26T22:32:48.546Z,0.43
2023-03-26T22:35:16.179Z,0.80
2023-03-26T22:37:43.023Z,0.50
2023-03-26T22:40:13.493Z,0.40
2023-03-26T22:42:41.359Z,0.40
2023-03-26T22:45:09.571Z,0.30
2023-03-26T22:47:37.076Z,0.50
2023-03-26T22:50:07.369Z,0.70
2023-03-26T22:52:35.552Z,0.30
2023-03-26T22:55:02.922Z,0.50
2023-03-26T22:57:29.751Z,0.87
2023-03-26T22:59:56.558Z,0.40
2023-03-26T23:02:23.501Z,0.30
2023-03-26T23:04:50.605Z,0.40
2023-03-26T23:07:17.465Z,0.40
2023-03-26T23:09:45.606Z,0.83
2023-03-26T23:12:12.359Z,0.30
2023-03-26T23:14:39.081Z,0.30
2023-03-26T23:17:05.830Z,0.57
2023-03-26T23:19:34.111Z,0.53
2023-03-26T23:22:01.020Z,0.30
2023-03-26T23:24:27.810Z,0.43
2023-03-26T23:26:54.530Z,0.80
2023-03-26T23:29:21.542Z,0.40
2023-03-26T23:31:48.313Z,0.40
2023-03-26T23:34:16.867Z,0.50
2023-03-26T23:36:44.781Z,0.70
2023-03-26T23:39:11.736Z,0.27
2023-03-26T23:41:38.689Z,0.43
2023-03-26T23:44:05.682Z,0.40
2023-03-26T23:46:33.578Z,0.60
2023-03-26T23:49:03.520Z,0.70
2023-03-26T23:51:31.584Z,0.80
2023-03-26T23:53:59.781Z,0.70
2023-03-26T23:56:27.634Z,0.60
2023-03-26T23:58:55.247Z,0.63
